createdAt,value
2022-12-17T00:00:41.460Z,96.30
2022-12-17T00:03:28.253Z,95.73
2022-12-17T00:06:13.590Z,96.17
2022-12-17T00:08:58.463Z,95.63
2022-12-17T00:11:43.403Z,94.74
2022-12-17T00:14:28.214Z,94.97
2022-12-17T00:17:13.076Z,95.25
2022-12-17T00:19:57.874Z,94.68
2022-12-17T00:22:42.737Z,94.83
2022-12-17T00:25:28.315Z,94.88
2022-12-17T00:28:13.227Z,94.08
2022-12-17T00:30:58.512Z,93.75
2022-12-17T00:33:43.663Z,93.83
2022-12-17T00:36:28.733Z,93.60
2022-12-17T00:39:13.659Z,94.01
2022-12-17T00:41:58.524Z,93.74
2022-12-17T00:44:43.367Z,93.70
2022-12-17T00:47:28.500Z,93.50
2022-12-17T00:50:13.596Z,93.77
2022-12-17T00:52:58.602Z,94.05
2022-12-17T00:55:43.690Z,94.05
2022-12-17T00:58:28.583Z,93.71
2022-12-17T01:01:17.016Z,93.72
2022-12-17T01:04:02.376Z,93.93
2022-12-17T01:06:47.321Z,94.30
2022-12-17T01:09:32.283Z,94.24
2022-12-17T01:12:17.166Z,94.85
2022-12-17T01:15:02.119Z,94.21
2022-12-17T01:17:47.126Z,94.24
2022-12-17T01:20:31.954Z,94.12
2022-12-17T01:23:16.831Z,94.16
2022-12-17T01:26:01.773Z,94.29
2022-12-17T01:28:46.784Z,94.53
2022-12-17T01:31:35.270Z,94.46
2022-12-17T01:34:20.861Z,94.40
2022-12-17T01:37:05.800Z,95.40
2022-12-17T01:39:50.721Z,94.61
2022-12-17T01:42:35.692Z,94.46
2022-12-17T01:45:21.019Z,93.74
2022-12-17T01:48:08.341Z,93.90
2022-12-17T01:50:55.612Z,93.63
2022-12-17T01:53:42.983Z,93.99
2022-12-17T01:56:27.866Z,93.63
2022-12-17T01:59:13.266Z,93.90
2022-12-17T02:01:58.653Z,93.29
2022-12-17T02:04:43.836Z,93.95
2022-12-17T02:07:28.697Z,93.83
2022-12-17T02:10:20.938Z,94.11
2022-12-17T02:13:08.846Z,93.89
2022-12-17T02:16:02.136Z,93.58
2022-12-17T02:18:51.078Z,93.89
2022-12-17T02:21:37.499Z,93.45
2022-12-17T02:24:34.765Z,93.40
2022-12-17T02:27:21.747Z,92.99
2022-12-17T02:30:09.286Z,93.05
2022-12-17T02:32:55.790Z,91.98
2022-12-17T02:35:46.411Z,92.43
2022-12-17T02:38:44.738Z,92.09
2022-12-17T02:41:33.646Z,91.52
2022-12-17T02:44:19.132Z,91.34
2022-12-17T02:47:04.444Z,91.83
2022-12-17T02:49:49.426Z,91.88
2022-12-17T02:52:36.350Z,91.29
2022-12-17T02:55:21.357Z,91.05
2022-12-17T02:58:06.451Z,91.13
2022-12-17T03:00:51.343Z,90.98
2022-12-17T03:03:37.054Z,91.48
2022-12-17T03:06:22.397Z,90.89
2022-12-17T03:09:07.283Z,90.59
2022-12-17T03:11:52.300Z,91.12
2022-12-17T03:14:37.182Z,90.92
2022-12-17T03:17:22.230Z,91.49
2022-12-17T03:20:07.201Z,91.06
2022-12-17T03:22:52.207Z,90.66
2022-12-17T03:25:37.016Z,90.96
2022-12-17T03:28:25.768Z,91.06
2022-12-17T03:31:11.285Z,91.05
2022-12-17T03:33:56.435Z,90.97
2022-12-17T03:36:41.345Z,91.32
2022-12-17T03:39:26.190Z,92.01
2022-12-17T03:42:11.033Z,91.82
2022-12-17T03:44:55.868Z,92.38
2022-12-17T03:47:40.619Z,92.31
2022-12-17T03:50:25.985Z,91.76
2022-12-17T03:53:10.964Z,91.78
2022-12-17T03:55:55.812Z,92.08
2022-12-17T03:58:40.760Z,91.95
2022-12-17T04:01:25.753Z,92.16
2022-12-17T04:04:12.491Z,91.97
2022-12-17T04:06:57.438Z,92.55
2022-12-17T04:09:42.281Z,92.55
2022-12-17T04:12:27.105Z,92.00
2022-12-17T04:15:11.919Z,91.84
2022-12-17T04:17:58.575Z,92.24
2022-12-17T04:20:43.502Z,92.69
2022-12-17T04:23:28.430Z,92.25
2022-12-17T04:26:13.366Z,92.84
2022-12-17T04:28:58.421Z,92.67
2022-12-17T04:31:43.933Z,92.70
2022-12-17T04:34:29.154Z,93.12
2022-12-17T04:37:14.017Z,92.50
2022-12-17T04:39:59.101Z,93.33
2022-12-17T04:42:44.052Z,93.28
2022-12-17T04:45:28.735Z,92.09
2022-12-17T04:48:24.004Z,92.30
2022-12-17T04:51:08.793Z,90.86
2022-12-17T04:53:53.673Z,90.79
2022-12-17T04:56:38.997Z,90.87
2022-12-17T04:59:24.376Z,90.31
2022-12-17T05:02:09.320Z,90.30
2022-12-17T05:04:54.478Z,90.51
2022-12-17T05:07:39.934Z,90.88
2022-12-17T05:10:25.474Z,90.57
2022-12-17T05:13:17.128Z,90.65
2022-12-17T05:16:09.656Z,90.92
2022-12-17T05:18:54.496Z,90.93
2022-12-17T05:21:39.454Z,90.03
2022-12-17T05:24:24.343Z,89.89
2022-12-17T05:27:09.177Z,89.71
2022-12-17T05:29:54.094Z,88.89
2022-12-17T05:32:39.012Z,88.84
2022-12-17T05:35:24.502Z,88.82
2022-12-17T05:38:09.366Z,88.95
2022-12-17T05:40:54.401Z,89.27
2022-12-17T05:43:39.432Z,88.72
2022-12-17T05:46:24.685Z,88.63
2022-12-17T05:49:10.082Z,89.32
2022-12-17T05:51:55.133Z,89.88
2022-12-17T05:54:40.066Z,89.61
2022-12-17T05:57:24.790Z,89.24
2022-12-17T06:00:09.641Z,88.93
2022-12-17T06:02:54.536Z,88.96
2022-12-17T06:05:39.853Z,88.78
2022-12-17T06:08:25.857Z,88.54
2022-12-17T06:11:10.633Z,88.34
2022-12-17T06:13:55.674Z,88.58
2022-12-17T06:16:40.501Z,87.55
2022-12-17T06:19:25.275Z,88.37
2022-12-17T06:22:10.152Z,88.83
2022-12-17T06:24:55.071Z,87.72
2022-12-17T06:27:39.971Z,87.37
2022-12-17T06:30:25.443Z,86.85
2022-12-17T06:33:10.364Z,86.47
2022-12-17T06:35:55.227Z,86.72
2022-12-17T06:38:40.262Z,86.09
2022-12-17T06:41:25.062Z,86.60
2022-12-17T06:44:10.208Z,86.82
2022-12-17T06:46:54.981Z,85.89
2022-12-17T06:49:40.816Z,85.76
2022-12-17T06:52:25.754Z,86.18
2022-12-17T06:55:10.579Z,86.46
2022-12-17T06:57:55.533Z,85.84
2022-12-17T07:00:42.169Z,86.29
2022-12-17T07:03:29.480Z,86.41
2022-12-17T07:06:14.417Z,86.85
2022-12-17T07:08:59.324Z,87.25
2022-12-17T07:11:44.572Z,86.45
2022-12-17T07:14:29.705Z,85.91
2022-12-17T07:17:14.899Z,86.14
2022-12-17T07:19:59.631Z,86.10
2022-12-17T07:22:44.760Z,86.07
2022-12-17T07:25:29.519Z,86.01
2022-12-17T07:28:14.798Z,86.00
2022-12-17T07:31:00.231Z,85.42
2022-12-17T07:33:45.376Z,85.34
2022-12-17T07:36:30.332Z,85.72
2022-12-17T07:39:15.403Z,85.87
2022-12-17T07:42:00.489Z,86.36
2022-12-17T07:44:45.751Z,86.24
2022-12-17T07:47:30.630Z,86.26
2022-12-17T07:50:32.615Z,86.22
2022-12-17T07:53:21.362Z,86.74
2022-12-17T07:56:06.223Z,86.66
2022-12-17T07:58:51.917Z,86.63
2022-12-17T08:01:36.758Z,86.36
2022-12-17T08:04:21.965Z,86.80
2022-12-17T08:07:11.112Z,86.46
2022-12-17T08:09:58.167Z,86.73
2022-12-17T08:12:43.241Z,86.77
2022-12-17T08:15:28.579Z,87.08
2022-12-17T08:18:21.525Z,87.12
2022-12-17T08:21:10.855Z,86.74
2022-12-17T08:23:55.815Z,86.88
2022-12-17T08:26:45.864Z,87.02
2022-12-17T08:29:32.942Z,86.95
2022-12-17T08:32:17.831Z,87.21
2022-12-17T08:35:02.859Z,87.02
2022-12-17T08:37:50.615Z,87.02
2022-12-17T08:40:35.471Z,86.52
2022-12-17T08:43:20.353Z,86.77
2022-12-17T08:46:06.371Z,87.47
2022-12-17T08:48:51.795Z,86.50
2022-12-17T08:51:36.632Z,86.26
2022-12-17T08:54:21.669Z,86.51
2022-12-17T08:57:06.796Z,86.36
2022-12-17T09:00:02.583Z,86.24
2022-12-17T09:02:47.700Z,86.39
2022-12-17T09:05:32.787Z,86.49
2022-12-17T09:08:22.388Z,86.49
2022-12-17T09:11:07.460Z,86.65
2022-12-17T09:13:52.422Z,86.99
2022-12-17T09:16:37.986Z,87.02
2022-12-17T09:19:23.252Z,86.78
2022-12-17T09:22:08.225Z,86.78
2022-12-17T09:24:53.048Z,86.70
2022-12-17T09:27:37.991Z,87.34
2022-12-17T09:30:24.134Z,87.33
2022-12-17T09:33:08.969Z,86.97
2022-12-17T09:35:56.163Z,87.46
2022-12-17T09:38:41.063Z,86.90
2022-12-17T09:41:45.415Z,86.71
2022-12-17T09:44:45.504Z,86.22
2022-12-17T09:47:33.413Z,86.11
2022-12-17T09:50:21.791Z,85.82
2022-12-17T09:53:07.920Z,85.28
2022-12-17T09:56:04.485Z,84.71
2022-12-17T09:58:49.932Z,84.84
2022-12-17T10:01:35.892Z,83.95
2022-12-17T10:04:22.627Z,83.90
2022-12-17T10:07:07.591Z,84.34
2022-12-17T10:09:54.082Z,84.22
2022-12-17T10:12:40.002Z,83.84
2022-12-17T10:15:26.003Z,84.44
2022-12-17T10:18:11.230Z,83.84
2022-12-17T10:20:58.270Z,84.32
2022-12-17T10:23:44.578Z,84.89
2022-12-17T10:26:34.304Z,84.12
2022-12-17T10:29:20.833Z,84.07
2022-12-17T10:32:05.664Z,84.18
2022-12-17T10:34:54.426Z,84.41
2022-12-17T10:37:39.817Z,84.53
2022-12-17T10:40:35.565Z,84.66
2022-12-17T10:43:20.493Z,84.54
2022-12-17T10:46:12.457Z,84.05
2022-12-17T10:48:57.616Z,84.36
2022-12-17T10:51:53.165Z,83.35
2022-12-17T10:54:48.753Z,83.75
2022-12-17T10:57:51.811Z,83.71
2022-12-17T11:00:36.724Z,83.06
2022-12-17T11:03:22.315Z,82.57
2022-12-17T11:06:10.923Z,82.01
2022-12-17T11:08:58.143Z,82.50
2022-12-17T11:12:07.324Z,82.75
2022-12-17T11:14:58.660Z,83.02
2022-12-17T11:17:44.196Z,82.91
2022-12-17T11:20:47.999Z,82.80
2022-12-17T11:23:37.721Z,83.07
2022-12-17T11:26:26.620Z,82.76
2022-12-17T11:29:11.554Z,82.93
2022-12-17T11:32:11.681Z,82.92
2022-12-17T11:35:15.097Z,82.75
2022-12-17T11:38:09.623Z,82.84
2022-12-17T11:40:59.610Z,82.98
2022-12-17T11:44:00.018Z,83.42
2022-12-17T11:46:57.287Z,83.64
2022-12-17T11:49:58.641Z,83.98
2022-12-17T11:52:43.624Z,84.00
2022-12-17T11:55:43.832Z,84.40
2022-12-17T11:58:43.334Z,84.79
2022-12-17T12:01:35.344Z,83.89
2022-12-17T12:04:41.359Z,84.27
2022-12-17T12:07:32.473Z,84.41
2022-12-17T12:10:27.889Z,84.31
2022-12-17T12:13:12.852Z,84.92
2022-12-17T12:16:13.071Z,85.25
2022-12-17T12:19:05.286Z,84.90
2022-12-17T12:21:56.887Z,84.69
2022-12-17T12:24:45.015Z,84.95
2022-12-17T12:27:42.416Z,85.17
2022-12-17T12:30:35.774Z,85.06
2022-12-17T12:33:49.418Z,84.76
2022-12-17T12:36:37.460Z,84.57
2022-12-17T12:39:22.219Z,84.11
2022-12-17T12:42:36.555Z,84.03
2022-12-17T12:45:21.338Z,83.81
2022-12-17T12:48:24.545Z,83.35
2022-12-17T12:51:22.445Z,83.50
2022-12-17T12:54:16.934Z,83.66
2022-12-17T12:57:01.870Z,83.47
2022-12-17T12:59:51.595Z,83.98
2022-12-17T13:02:39.684Z,83.80
2022-12-17T13:05:33.961Z,83.86
2022-12-17T13:08:15.689Z,83.70
2022-12-17T13:10:42.178Z,83.78
2022-12-17T13:13:24.779Z,83.47
2022-12-17T13:15:53.803Z,83.87
2022-12-17T13:18:27.362Z,83.81
2022-12-17T13:20:59.564Z,83.70
2022-12-17T13:23:28.214Z,84.04
2022-12-17T13:26:13.629Z,83.69
2022-12-17T13:28:40.640Z,84.39
2022-12-17T13:31:15.673Z,84.57
2022-12-17T13:33:50.891Z,84.96
2022-12-17T13:36:27.135Z,84.75
2022-12-17T13:38:53.781Z,85.18
2022-12-17T13:41:21.385Z,85.19
2022-12-17T13:43:52.936Z,85.71
2022-12-17T13:46:27.229Z,85.91
2022-12-17T13:48:53.969Z,85.82
2022-12-17T13:51:21.320Z,85.70
2022-12-17T13:53:55.790Z,85.74
2022-12-17T13:56:34.686Z,85.67
2022-12-17T13:59:07.978Z,85.41
2022-12-17T14:01:43.749Z,85.45
2022-12-17T14:04:19.235Z,86.03
2022-12-17T14:06:45.911Z,85.75
2022-12-17T14:09:19.655Z,85.99
2022-12-17T14:12:05.211Z,86.10
2022-12-17T14:14:31.643Z,86.06
2022-12-17T14:16:58.365Z,86.65
2022-12-17T14:19:25.582Z,86.61
2022-12-17T14:21:52.097Z,87.02
2022-12-17T14:24:23.220Z,86.57
2022-12-17T14:26:50.877Z,87.36
2022-12-17T14:29:37.493Z,87.62
2022-12-17T14:32:22.069Z,87.36
2022-12-17T14:34:48.472Z,87.54
2022-12-17T14:37:22.072Z,87.74
2022-12-17T14:39:48.725Z,87.46
2022-12-17T14:42:32.479Z,87.22
2022-12-17T14:45:07.767Z,87.18
2022-12-17T14:47:35.134Z,87.74
2022-12-17T14:50:04.580Z,87.97
2022-12-17T14:52:39.473Z,87.89
2022-12-17T14:55:41.233Z,87.44
2022-12-17T14:58:13.637Z,87.41
2022-12-17T15:00:45.048Z,87.09
2022-12-17T15:03:17.847Z,86.96
2022-12-17T15:05:46.297Z,86.62
2022-12-17T15:08:13.102Z,86.43
2022-12-17T15:10:39.484Z,86.64
2022-12-17T15:13:05.867Z,87.12
2022-12-17T15:15:32.232Z,87.10
2022-12-17T15:17:59.206Z,86.81
2022-12-17T15:20:25.664Z,87.23
2022-12-17T15:22:52.114Z,87.06
2022-12-17T15:25:19.267Z,87.16
2022-12-17T15:27:45.922Z,86.00
2022-12-17T15:30:16.548Z,85.95
2022-12-17T15:32:43.287Z,85.21
2022-12-17T15:35:11.074Z,85.78
2022-12-17T15:37:37.541Z,85.28
2022-12-17T15:40:05.020Z,85.32
2022-12-17T15:42:50.232Z,84.96
2022-12-17T15:45:16.767Z,84.51
2022-12-17T15:47:43.208Z,85.29
2022-12-17T15:50:09.790Z,84.29
2022-12-17T15:52:36.182Z,84.13
2022-12-17T15:55:02.659Z,84.69
2022-12-17T15:57:29.048Z,84.19
2022-12-17T15:59:55.433Z,84.48
2022-12-17T16:02:22.049Z,84.16
2022-12-17T16:04:48.601Z,84.00
2022-12-17T16:07:16.408Z,84.08
2022-12-17T16:09:42.794Z,84.08
2022-12-17T16:12:09.193Z,83.91
2022-12-17T16:14:35.579Z,83.46
2022-12-17T16:17:01.951Z,84.28
2022-12-17T16:19:28.337Z,84.09
2022-12-17T16:21:54.692Z,84.26
2022-12-17T16:24:21.146Z,84.22
2022-12-17T16:26:47.540Z,83.97
2022-12-17T16:29:14.330Z,83.43
2022-12-17T16:31:40.784Z,83.51
2022-12-17T16:34:10.636Z,83.17
2022-12-17T16:36:37.042Z,83.95
2022-12-17T16:39:04.058Z,83.64
2022-12-17T16:41:30.478Z,83.69
2022-12-17T16:43:56.875Z,83.67
2022-12-17T16:46:32.229Z,83.75
2022-12-17T16:48:59.835Z,83.80
2022-12-17T16:51:29.158Z,84.00
2022-12-17T16:53:56.013Z,84.27
2022-12-17T16:56:24.094Z,83.65
2022-12-17T16:58:50.973Z,84.12
2022-12-17T17:01:21.551Z,84.04
2022-12-17T17:03:48.262Z,84.17
2022-12-17T17:06:15.151Z,84.18
2022-12-17T17:08:41.591Z,84.16
2022-12-17T17:11:12.287Z,83.92
2022-12-17T17:13:38.807Z,83.82
2022-12-17T17:16:06.319Z,84.15
2022-12-17T17:18:33.098Z,84.22
2022-12-17T17:21:14.837Z,84.24
2022-12-17T17:23:41.721Z,84.14
2022-12-17T17:26:08.834Z,84.24
2022-12-17T17:28:35.730Z,84.04
2022-12-17T17:31:03.320Z,84.03
2022-12-17T17:33:33.977Z,84.04
2022-12-17T17:36:04.397Z,84.30
2022-12-17T17:38:32.159Z,84.05
2022-12-17T17:40:58.577Z,84.11
2022-12-17T17:43:24.964Z,83.81
2022-12-17T17:45:51.384Z,84.17
2022-12-17T17:48:17.751Z,83.95
2022-12-17T17:50:44.176Z,84.13
2022-12-17T17:53:10.547Z,83.87
2022-12-17T17:55:36.968Z,84.30
2022-12-17T17:58:03.408Z,84.81
2022-12-17T18:00:29.799Z,85.03
2022-12-17T18:02:56.375Z,84.72
2022-12-17T18:05:22.902Z,84.53
2022-12-17T18:07:49.294Z,84.63
2022-12-17T18:10:15.734Z,84.71
2022-12-17T18:13:00.912Z,84.92
2022-12-17T18:15:27.351Z,84.82
2022-12-17T18:17:53.745Z,84.67
2022-12-17T18:20:20.145Z,84.52
2022-12-17T18:22:47.030Z,84.41
2022-12-17T18:25:13.864Z,84.56
2022-12-17T18:27:40.293Z,84.65
2022-12-17T18:30:25.655Z,84.78
2022-12-17T18:32:52.072Z,83.96
2022-12-17T18:35:18.541Z,84.84
2022-12-17T18:37:44.954Z,84.84
2022-12-17T18:40:11.370Z,84.81
2022-12-17T18:42:56.245Z,84.33
2022-12-17T18:45:22.620Z,84.86
2022-12-17T18:47:50.034Z,84.67
2022-12-17T18:50:16.675Z,85.07
2022-12-17T18:52:43.089Z,85.30
2022-12-17T18:55:09.477Z,84.96
2022-12-17T18:57:35.867Z,85.27
2022-12-17T19:00:02.291Z,85.52
2022-12-17T19:02:28.752Z,85.26
2022-12-17T19:04:55.191Z,85.76
2022-12-17T19:07:21.593Z,85.87
2022-12-17T19:09:48.016Z,85.95
2022-12-17T19:12:14.403Z,85.53
2022-12-17T19:14:40.995Z,85.85
2022-12-17T19:17:07.413Z,85.33
2022-12-17T19:19:34.088Z,85.35
2022-12-17T19:22:00.697Z,85.88
2022-12-17T19:24:27.249Z,85.91
2022-12-17T19:26:53.629Z,85.68
2022-12-17T19:29:20.534Z,86.08
2022-12-17T19:31:47.358Z,85.61
2022-12-17T19:34:14.497Z,86.40
2022-12-17T19:36:41.519Z,86.41
2022-12-17T19:39:08.651Z,86.59
2022-12-17T19:41:35.212Z,86.60
2022-12-17T19:44:02.829Z,86.61
2022-12-17T19:46:30.584Z,86.36
2022-12-17T19:48:57.533Z,86.59
2022-12-17T19:51:24.951Z,86.36
2022-12-17T19:53:51.651Z,86.67
2022-12-17T19:56:22.275Z,86.72
2022-12-17T19:58:52.398Z,87.09
2022-12-17T20:01:23.230Z,87.11
2022-12-17T20:03:50.446Z,87.58
2022-12-17T20:06:17.937Z,87.94
2022-12-17T20:08:44.411Z,87.75
2022-12-17T20:11:30.225Z,87.63
2022-12-17T20:13:57.747Z,87.86
2022-12-17T20:16:24.192Z,88.16
2022-12-17T20:18:50.786Z,88.18
2022-12-17T20:21:17.328Z,88.11
2022-12-17T20:23:46.598Z,87.89
2022-12-17T20:26:13.369Z,88.25
2022-12-17T20:28:40.203Z,87.92
2022-12-17T20:31:07.555Z,88.27
2022-12-17T20:33:33.978Z,88.26
2022-12-17T20:36:08.072Z,88.21
2022-12-17T20:38:34.468Z,87.95
2022-12-17T20:41:17.703Z,88.27
2022-12-17T20:43:44.141Z,88.03
2022-12-17T20:46:11.031Z,88.15
2022-12-17T20:48:38.880Z,88.59
2022-12-17T20:51:09.551Z,88.59
2022-12-17T20:53:36.453Z,89.20
2022-12-17T20:56:04.622Z,89.23
2022-12-17T20:58:31.100Z,89.06
2022-12-17T21:01:04.732Z,89.26
2022-12-17T21:03:32.455Z,88.86
2022-12-17T21:06:05.281Z,88.82
2022-12-17T21:08:31.779Z,88.43
2022-12-17T21:10:58.252Z,88.41
2022-12-17T21:13:30.757Z,88.46
2022-12-17T21:15:58.166Z,88.50
2022-12-17T21:18:25.038Z,89.04
2022-12-17T21:20:59.019Z,88.93
2022-12-17T21:23:25.765Z,88.99
2022-12-17T21:25:59.734Z,88.82
2022-12-17T21:28:26.796Z,88.54
2022-12-17T21:30:53.282Z,88.23
2022-12-17T21:33:19.795Z,88.12
2022-12-17T21:35:46.255Z,87.84
2022-12-17T21:38:13.024Z,88.30
2022-12-17T21:40:39.434Z,88.09
2022-12-17T21:43:06.040Z,88.16
2022-12-17T21:45:42.284Z,87.70
2022-12-17T21:48:14.637Z,87.39
2022-12-17T21:50:42.352Z,87.76
2022-12-17T21:53:10.165Z,87.46
2022-12-17T21:55:37.931Z,87.55
2022-12-17T21:58:04.782Z,87.96
2022-12-17T22:00:31.278Z,87.51
2022-12-17T22:02:58.027Z,87.64
2022-12-17T22:05:24.492Z,87.60
2022-12-17T22:07:51.259Z,87.49
2022-12-17T22:10:37.868Z,86.94
2022-12-17T22:13:24.203Z,87.40
2022-12-17T22:15:50.683Z,86.91
2022-12-17T22:18:17.120Z,86.78
2022-12-17T22:20:43.518Z,87.52
2022-12-17T22:23:09.889Z,87.38
2022-12-17T22:25:38.424Z,87.51
2022-12-17T22:28:05.015Z,87.24
2022-12-17T22:30:49.959Z,87.66
2022-12-17T22:33:44.755Z,87.23
2022-12-17T22:39:07.777Z,87.16
2022-12-17T22:41:01.891Z,87.76
2022-12-17T22:44:34.190Z,87.17
2022-12-17T22:44:53.471Z,87.05
2022-12-17T22:47:20.438Z,86.26
2022-12-17T22:49:46.826Z,86.92
2022-12-17T22:52:13.249Z,86.62
2022-12-17T22:54:40.871Z,86.65
2022-12-17T22:57:28.013Z,86.54
2022-12-17T22:59:54.197Z,86.21
2022-12-17T23:02:20.702Z,86.67
2022-12-17T23:04:47.333Z,86.99
2022-12-17T23:07:13.711Z,87.14
2022-12-17T23:09:40.102Z,86.23
2022-12-17T23:12:25.074Z,86.75
2022-12-17T23:14:51.459Z,86.87
2022-12-17T23:17:17.836Z,86.42
2022-12-17T23:19:44.229Z,86.41
2022-12-17T23:22:10.600Z,86.84
2022-12-17T23:24:37.037Z,86.03
2022-12-17T23:27:03.457Z,87.15
2022-12-17T23:29:29.863Z,87.18
2022-12-17T23:31:56.222Z,86.33
2022-12-17T23:34:22.616Z,86.86
2022-12-17T23:36:49.039Z,87.05
2022-12-17T23:39:15.494Z,86.82
2022-12-17T23:41:41.890Z,86.99
2022-12-17T23:44:08.363Z,86.85
2022-12-17T23:46:34.866Z,87.65
2022-12-17T23:49:03.551Z,87.52
2022-12-17T23:51:29.950Z,87.17
2022-12-17T23:53:56.430Z,87.16
2022-12-17T23:56:24.430Z,86.85
2022-12-17T23:58:55.342Z,87.10
